Time;durP1;ratioP1;P1;durP2;ratioP2;P2;SDS_P1;SDS_P2;PMS_P1;PMS_P2;Temp;Humidity;BMP_temperature;BMP_pressure;BME280_temperature;BME280_humidity;BME280_pressure;Samples;Min_cycle;Max_cycle;Signal;HPM_P1;HPM_P2
2023/07/13 00:00:03;;;;;;;5.85;1.70;;;;;;;;;;5101261;28;41931;-70
2023/07/13 00:02:32;;;;;;;7.13;1.83;;;;;;;;;;5103956;28;41958;-70
2023/07/13 00:05:01;;;;;;;5.60;1.17;;;;;;;;;;5090839;27;40159;-70
2023/07/13 00:07:31;;;;;;;2.30;1.30;;;;;;;;;;5095245;27;41767;-70
2023/07/13 00:09:59;;;;;;;3.50;1.25;;;;;;;;;;5087744;28;42546;-70
2023/07/13 00:12:28;;;;;;;4.70;1.40;;;;;;;;;;5103421;28;40048;-70
2023/07/13 00:15:00;;;;;;;4.63;1.30;;;;;;;;;;5107145;27;41360;-70
2023/07/13 00:17:28;;;;;;;4.07;1.20;;;;;;;;;;5107839;27;33605;-70
2023/07/13 00:19:56;;;;;;;3.85;1.33;;;;;;;;;;5108071;27;39753;-70
2023/07/13 00:22:25;;;;;;;5.20;1.42;;;;;;;;;;5094686;27;43147;-70
2023/07/13 00:24:56;;;;;;;6.25;1.58;;;;;;;;;;5091406;28;39831;-70
2023/07/13 00:27:26;;;;;;;3.47;1.00;;;;;;;;;;5095049;27;41477;-70
2023/07/13 00:29:54;;;;;;;4.57;1.42;;;;;;;;;;5094818;28;41274;-70
2023/07/13 00:32:25;;;;;;;4.30;1.15;;;;;;;;;;5113681;27;39800;-70
2023/07/13 00:34:55;;;;;;;5.18;1.20;;;;;;;;;;5098499;27;41806;-70
2023/07/13 00:37:23;;;;;;;5.90;1.63;;;;;;;;;;5112967;27;40577;-70
2023/07/13 00:39:51;;;;;;;3.92;1.63;;;;;;;;;;5097304;28;42540;-70
2023/07/13 00:42:21;;;;;;;3.33;1.30;;;;;;;;;;5104154;28;41844;-70
2023/07/13 00:45:08;;;;;;;1.80;1.00;;;;;;;;;;5107978;28;40499;-71
2023/07/13 00:47:36;;;;;;;3.58;1.48;;;;;;;;;;5105900;28;40109;-70
2023/07/13 00:50:05;;;;;;;3.63;1.35;;;;;;;;;;5105625;28;40675;-70
2023/07/13 00:52:33;;;;;;;3.60;1.20;;;;;;;;;;5105394;28;40262;-69
2023/07/13 00:55:01;;;;;;;4.35;1.70;;;;;;;;;;5106896;27;41761;-70
2023/07/13 00:57:31;;;;;;;3.90;1.15;;;;;;;;;;5104524;28;40802;-70
2023/07/13 01:00:06;;;;;;;3.10;1.10;;;;;;;;;;5107824;28;41301;-69
2023/07/13 01:02:34;;;;;;;2.83;1.40;;;;;;;;;;5106782;27;42047;-69
2023/07/13 01:05:02;;;;;;;3.90;1.30;;;;;;;;;;5107165;28;41020;-70
2023/07/13 01:07:31;;;;;;;4.63;1.65;;;;;;;;;;5105150;28;41039;-70
2023/07/13 01:09:59;;;;;;;3.83;1.40;;;;;;;;;;5107662;28;41861;-70
2023/07/13 01:12:27;;;;;;;2.92;1.40;;;;;;;;;;5105656;28;40808;-70
2023/07/13 01:15:00;;;;;;;2.05;1.30;;;;;;;;;;5107810;28;41716;-70
2023/07/13 01:17:28;;;;;;;3.22;1.35;;;;;;;;;;5105764;27;42267;-69
2023/07/13 01:19:56;;;;;;;3.22;1.20;;;;;;;;;;5107424;28;40397;-70
2023/07/13 01:22:26;;;;;;;2.42;1.50;;;;;;;;;;5106703;28;41937;-70
2023/07/13 01:24:55;;;;;;;3.28;1.20;;;;;;;;;;5104741;28;39108;-71
2023/07/13 01:27:24;;;;;;;4.07;1.55;;;;;;;;;;5105413;28;40307;-70
2023/07/13 01:29:53;;;;;;;3.53;1.42;;;;;;;;;;5105355;28;41739;-69
2023/07/13 01:32:23;;;;;;;4.28;1.20;;;;;;;;;;5105326;28;40424;-69
2023/07/13 01:34:54;;;;;;;3.63;1.30;;;;;;;;;;5105013;28;40110;-69
2023/07/13 01:37:23;;;;;;;2.85;1.17;;;;;;;;;;5106422;28;42544;-69
2023/07/13 01:39:53;;;;;;;3.25;1.20;;;;;;;;;;5104245;28;40179;-69
2023/07/13 01:42:21;;;;;;;1.75;1.00;;;;;;;;;;5106607;28;41281;-69
2023/07/13 01:44:50;;;;;;;3.13;1.50;;;;;;;;;;5107124;28;42754;-69
2023/07/13 01:47:18;;;;;;;2.72;1.25;;;;;;;;;;5105215;28;42077;-69
2023/07/13 01:49:47;;;;;;;3.38;1.50;;;;;;;;;;5105623;27;41762;-69
2023/07/13 01:52:15;;;;;;;2.92;1.27;;;;;;;;;;5105525;28;40241;-69
2023/07/13 01:54:43;;;;;;;2.88;1.25;;;;;;;;;;5103514;28;41314;-69
2023/07/13 01:57:13;;;;;;;3.60;1.35;;;;;;;;;;5104652;28;40623;-69
2023/07/13 01:59:41;;;;;;;3.78;1.50;;;;;;;;;;5106037;27;40416;-69
2023/07/13 02:02:09;;;;;;;3.42;1.27;;;;;;;;;;5106691;28;41702;-69
2023/07/13 02:04:37;;;;;;;2.63;1.10;;;;;;;;;;5106252;28;42181;-69
2023/07/13 02:07:05;;;;;;;1.80;1.00;;;;;;;;;;5106397;28;41399;-70
2023/07/13 02:09:33;;;;;;;2.95;1.00;;;;;;;;;;5105970;27;42745;-69
2023/07/13 02:12:02;;;;;;;2.78;1.17;;;;;;;;;;5107801;28;41345;-69
2023/07/13 02:14:35;;;;;;;2.28;1.05;;;;;;;;;;5108844;28;42481;-69
2023/07/13 02:17:03;;;;;;;1.95;1.05;;;;;;;;;;5125149;27;41097;-70
2023/07/13 02:19:31;;;;;;;2.88;1.42;;;;;;;;;;5109529;27;41612;-69
2023/07/13 02:22:00;;;;;;;2.70;1.30;;;;;;;;;;5107848;28;40081;-69
2023/07/13 02:24:28;;;;;;;3.30;1.23;;;;;;;;;;5109583;27;42036;-69
2023/07/13 02:26:56;;;;;;;4.65;1.25;;;;;;;;;;5108692;28;38809;-69
2023/07/13 02:29:24;;;;;;;2.47;1.10;;;;;;;;;;5108181;28;42800;-69
2023/07/13 02:31:53;;;;;;;2.13;1.10;;;;;;;;;;5110266;28;40423;-69
2023/07/13 02:34:23;;;;;;;3.42;1.30;;;;;;;;;;5124580;27;40712;-69
2023/07/13 02:36:51;;;;;;;2.95;1.27;;;;;;;;;;5108689;27;42254;-69
2023/07/13 02:39:19;;;;;;;5.30;1.30;;;;;;;;;;5107886;28;39025;-69
2023/07/13 02:41:48;;;;;;;2.25;1.08;;;;;;;;;;5109752;27;43036;-69
2023/07/13 02:44:16;;;;;;;2.13;0.90;;;;;;;;;;5109404;27;41617;-69
2023/07/13 02:46:44;;;;;;;3.08;1.55;;;;;;;;;;5109815;28;41514;-69
2023/07/13 02:49:15;;;;;;;2.25;1.00;;;;;;;;;;5108809;27;41747;-69
2023/07/13 02:51:43;;;;;;;2.15;1.05;;;;;;;;;;5109334;28;40276;-69
2023/07/13 02:54:13;;;;;;;4.60;1.40;;;;;;;;;;5109511;27;41537;-69
2023/07/13 02:56:43;;;;;;;2.50;1.20;;;;;;;;;;5106485;28;42891;-69
2023/07/13 02:59:12;;;;;;;3.15;1.38;;;;;;;;;;5107937;28;40190;-69
2023/07/13 03:01:40;;;;;;;2.97;1.10;;;;;;;;;;5109135;28;42003;-69
2023/07/13 03:04:09;;;;;;;4.65;1.27;;;;;;;;;;5108655;27;42692;-70
2023/07/13 03:06:38;;;;;;;2.58;1.25;;;;;;;;;;5107292;28;40215;-69
2023/07/13 03:09:06;;;;;;;1.98;1.00;;;;;;;;;;5109179;28;42708;-69
2023/07/13 03:11:37;;;;;;;3.97;1.30;;;;;;;;;;5107225;28;40969;-69
2023/07/13 03:14:23;;;;;;;3.08;1.20;;;;;;;;;;5107125;28;41910;-69
2023/07/13 03:16:51;;;;;;;2.88;1.10;;;;;;;;;;5107348;28;41022;-69
2023/07/13 03:19:22;;;;;;;2.03;1.27;;;;;;;;;;5106382;28;39742;-69
2023/07/13 03:21:53;;;;;;;3.38;1.33;;;;;;;;;;5107273;27;40433;-69
2023/07/13 03:24:23;;;;;;;3.30;1.52;;;;;;;;;;5106047;28;40450;-69
2023/07/13 03:26:52;;;;;;;2.35;1.40;;;;;;;;;;5106593;28;40938;-69
2023/07/13 03:29:21;;;;;;;4.70;1.52;;;;;;;;;;5105334;28;40965;-69
2023/07/13 03:31:49;;;;;;;3.40;1.40;;;;;;;;;;5101147;27;42299;-69
2023/07/13 03:34:17;;;;;;;2.88;1.48;;;;;;;;;;5096519;28;40148;-69
2023/07/13 03:36:45;;;;;;;3.85;1.27;;;;;;;;;;5095223;28;42005;-69
2023/07/13 03:39:15;;;;;;;1.88;1.30;;;;;;;;;;5108666;28;41325;-69
2023/07/13 03:41:47;;;;;;;3.45;1.50;;;;;;;;;;5107103;28;40282;-69
2023/07/13 03:44:17;;;;;;;3.00;1.30;;;;;;;;;;5106218;28;41540;-69
2023/07/13 03:46:48;;;;;;;2.75;1.20;;;;;;;;;;5106554;28;39038;-70
2023/07/13 03:49:16;;;;;;;3.28;1.20;;;;;;;;;;5106765;28;41286;-69
2023/07/13 03:51:44;;;;;;;2.50;1.15;;;;;;;;;;5107656;28;41088;-69
2023/07/13 03:54:13;;;;;;;3.20;1.45;;;;;;;;;;5106478;28;39117;-69
2023/07/13 03:56:42;;;;;;;2.90;1.40;;;;;;;;;;5108229;28;41759;-70
2023/07/13 03:59:11;;;;;;;4.18;1.40;;;;;;;;;;5106346;28;38901;-69
2023/07/13 04:01:39;;;;;;;2.90;1.23;;;;;;;;;;5106591;28;40682;-69
2023/07/13 04:04:07;;;;;;;4.20;1.50;;;;;;;;;;5106679;28;41966;-70
2023/07/13 04:06:35;;;;;;;2.45;1.30;;;;;;;;;;5105750;28;39907;-69
2023/07/13 04:09:05;;;;;;;3.15;1.23;;;;;;;;;;5107047;28;41091;-70
2023/07/13 04:11:33;;;;;;;3.35;1.45;;;;;;;;;;5107686;27;42559;-69
2023/07/13 04:14:03;;;;;;;4.63;1.33;;;;;;;;;;5107600;27;40208;-70
2023/07/13 04:16:31;;;;;;;2.22;1.10;;;;;;;;;;5105952;28;40516;-69
2023/07/13 04:19:00;;;;;;;4.32;1.35;;;;;;;;;;5108215;27;42888;-69
2023/07/13 04:21:30;;;;;;;3.20;1.40;;;;;;;;;;5106862;27;41720;-70
2023/07/13 04:23:58;;;;;;;8.15;1.60;;;;;;;;;;5108498;27;42002;-69
2023/07/13 04:26:26;;;;;;;4.15;1.58;;;;;;;;;;5107777;27;41072;-69
2023/07/13 04:28:57;;;;;;;2.67;1.40;;;;;;;;;;5106613;27;42599;-69
2023/07/13 04:31:28;;;;;;;3.38;1.30;;;;;;;;;;5107155;27;41837;-69
2023/07/13 04:33:56;;;;;;;2.67;1.30;;;;;;;;;;5107085;27;40048;-69
2023/07/13 04:36:26;;;;;;;4.20;1.48;;;;;;;;;;5106597;27;42255;-70
2023/07/13 04:38:55;;;;;;;3.30;1.40;;;;;;;;;;5108016;27;42486;-69
2023/07/13 04:41:23;;;;;;;6.18;1.50;;;;;;;;;;5107009;27;41860;-69
2023/07/13 04:43:54;;;;;;;3.38;1.40;;;;;;;;;;5107891;27;42165;-69
2023/07/13 04:46:24;;;;;;;2.80;1.15;;;;;;;;;;5107171;27;41342;-69
2023/07/13 04:48:54;;;;;;;2.10;1.40;;;;;;;;;;5106701;27;42092;-69
2023/07/13 04:51:22;;;;;;;4.18;1.30;;;;;;;;;;5107418;27;41501;-69
2023/07/13 04:53:50;;;;;;;3.75;1.52;;;;;;;;;;5107430;27;40309;-69
2023/07/13 04:56:26;;;;;;;3.20;1.30;;;;;;;;;;5106836;27;41777;-69
2023/07/13 04:58:54;;;;;;;2.47;1.42;;;;;;;;;;5107528;27;42293;-69
2023/07/13 05:01:22;;;;;;;5.47;1.38;;;;;;;;;;5107074;27;39899;-69
2023/07/13 05:03:50;;;;;;;3.72;1.77;;;;;;;;;;5106157;27;42066;-69
2023/07/13 05:06:20;;;;;;;4.90;1.60;;;;;;;;;;5106377;27;41379;-69
2023/07/13 05:08:48;;;;;;;4.15;1.55;;;;;;;;;;5103354;28;41826;-69
2023/07/13 05:11:16;;;;;;;4.30;1.77;;;;;;;;;;5106068;27;43121;-69
2023/07/13 05:13:44;;;;;;;3.10;1.60;;;;;;;;;;5107472;27;40579;-69
2023/07/13 05:16:12;;;;;;;3.10;1.60;;;;;;;;;;5107132;27;42501;-69
2023/07/13 05:18:40;;;;;;;3.05;1.40;;;;;;;;;;5099442;27;41962;-70
2023/07/13 05:21:11;;;;;;;5.57;1.70;;;;;;;;;;5091220;28;41516;-70
2023/07/13 05:23:41;;;;;;;3.53;1.70;;;;;;;;;;5098134;28;42221;-69
2023/07/13 05:26:10;;;;;;;4.90;1.55;;;;;;;;;;5102863;27;39542;-69
2023/07/13 05:28:38;;;;;;;3.45;1.67;;;;;;;;;;5105838;27;41239;-69
2023/07/13 05:31:06;;;;;;;4.78;1.92;;;;;;;;;;5105985;27;43105;-69
2023/07/13 05:33:34;;;;;;;4.10;2.08;;;;;;;;;;5105890;27;40489;-69
2023/07/13 05:36:02;;;;;;;5.32;2.15;;;;;;;;;;5107155;27;42620;-69
2023/07/13 05:38:30;;;;;;;5.30;1.73;;;;;;;;;;5105258;27;42940;-69
2023/07/13 05:41:00;;;;;;;6.65;2.90;;;;;;;;;;5106360;27;40432;-68
2023/07/13 05:43:32;;;;;;;5.20;2.50;;;;;;;;;;5106392;27;42240;-68
2023/07/13 05:46:00;;;;;;;6.22;3.95;;;;;;;;;;5109621;27;44478;-69
2023/07/13 05:48:28;;;;;;;6.82;3.92;;;;;;;;;;5109777;27;42298;-69
2023/07/13 05:50:57;;;;;;;7.05;4.32;;;;;;;;;;5110610;27;43153;-68
2023/07/13 05:53:25;;;;;;;6.40;5.80;;;;;;;;;;5109035;27;40842;-69
2023/07/13 05:55:53;;;;;;;6.75;4.82;;;;;;;;;;5110508;27;42700;-69
2023/07/13 05:58:23;;;;;;;8.32;7.53;;;;;;;;;;5109776;27;42681;-69
2023/07/13 06:00:58;;;;;;;9.55;8.52;;;;;;;;;;5109838;27;40447;-69
2023/07/13 06:03:27;;;;;;;9.52;8.45;;;;;;;;;;5109168;27;41894;-69
2023/07/13 06:05:55;;;;;;;9.90;8.90;;;;;;;;;;5108934;27;42764;-69
2023/07/13 06:08:23;;;;;;;10.60;9.65;;;;;;;;;;5110563;27;40197;-70
2023/07/13 06:10:51;;;;;;;10.40;9.40;;;;;;;;;;5109863;27;41618;-69
2023/07/13 06:13:19;;;;;;;11.98;9.45;;;;;;;;;;5108694;27;39998;-71
2023/07/13 06:15:50;;;;;;;9.68;8.65;;;;;;;;;;5110696;27;42171;-69
2023/07/13 06:18:18;;;;;;;9.88;8.88;;;;;;;;;;5104556;27;42327;-69
2023/07/13 06:20:46;;;;;;;9.60;8.38;;;;;;;;;;5095288;27;41201;-69
2023/07/13 06:23:14;;;;;;;9.25;8.15;;;;;;;;;;5100748;28;41645;-66
2023/07/13 06:25:42;;;;;;;10.32;6.38;;;;;;;;;;5102182;27;43416;-66
2023/07/13 06:28:10;;;;;;;7.03;5.03;;;;;;;;;;5109717;27;40740;-67
2023/07/13 06:30:39;;;;;;;10.43;5.05;;;;;;;;;;5101356;27;42640;-67
2023/07/13 06:33:08;;;;;;;9.23;4.63;;;;;;;;;;5101222;28;40020;-67
2023/07/13 06:35:36;;;;;;;10.00;5.45;;;;;;;;;;5098347;28;41678;-67
2023/07/13 06:38:04;;;;;;;18.80;7.88;;;;;;;;;;5101632;28;42712;-67
2023/07/13 06:40:32;;;;;;;18.48;7.72;;;;;;;;;;5100096;28;41103;-66
2023/07/13 06:43:00;;;;;;;18.98;8.07;;;;;;;;;;5097582;28;41741;-67
2023/07/13 06:45:29;;;;;;;212.00;18.60;;;;;;;;;;5097863;27;41863;-67
2023/07/13 06:47:57;;;;;;;479.02;32.58;;;;;;;;;;5100874;28;40577;-66
2023/07/13 06:50:26;;;;;;;95.25;12.77;;;;;;;;;;5099312;27;42673;-72
2023/07/13 06:52:54;;;;;;;70.40;12.15;;;;;;;;;;5096182;28;40150;-74
2023/07/13 06:55:23;;;;;;;60.08;10.70;;;;;;;;;;5097829;27;42676;-74
2023/07/13 06:57:51;;;;;;;62.08;9.60;;;;;;;;;;5098350;28;43193;-66
2023/07/13 07:00:19;;;;;;;47.08;10.23;;;;;;;;;;5098204;28;40483;-66
2023/07/13 07:02:47;;;;;;;34.80;9.80;;;;;;;;;;5099682;28;41382;-67
2023/07/13 07:05:15;;;;;;;51.25;8.88;;;;;;;;;;5102047;27;42169;-67
2023/07/13 07:07:45;;;;;;;24.70;8.52;;;;;;;;;;5099962;28;40214;-67
2023/07/13 07:10:13;;;;;;;25.20;7.85;;;;;;;;;;5099466;28;41856;-67
2023/07/13 07:12:41;;;;;;;28.27;8.65;;;;;;;;;;5098874;27;44332;-66
2023/07/13 07:15:09;;;;;;;26.95;8.15;;;;;;;;;;5100894;28;41160;-67
2023/07/13 07:17:37;;;;;;;22.17;8.40;;;;;;;;;;5099080;27;42499;-66
2023/07/13 07:20:06;;;;;;;22.30;8.93;;;;;;;;;;5099612;27;41495;-66
2023/07/13 07:22:34;;;;;;;23.80;8.30;;;;;;;;;;5097733;28;42591;-66
2023/07/13 07:25:04;;;;;;;22.42;8.35;;;;;;;;;;5100345;28;43212;-67
2023/07/13 07:27:32;;;;;;;20.80;8.32;;;;;;;;;;5087994;28;41051;-66
2023/07/13 07:30:04;;;;;;;15.60;7.88;;;;;;;;;;5088375;28;42380;-66
2023/07/13 07:32:35;;;;;;;17.77;8.48;;;;;;;;;;5086726;28;43865;-66
2023/07/13 07:35:06;;;;;;;18.48;7.80;;;;;;;;;;5089144;28;42325;-67
2023/07/13 07:37:34;;;;;;;19.75;7.03;;;;;;;;;;5090828;28;43311;-73
2023/07/13 07:40:08;;;;;;;19.95;8.48;;;;;;;;;;5097423;27;41028;-74
2023/07/13 07:42:39;;;;;;;16.30;8.27;;;;;;;;;;5096758;27;42585;-72
2023/07/13 07:45:07;;;;;;;20.55;8.85;;;;;;;;;;5099179;27;42101;-72
2023/07/13 07:47:35;;;;;;;21.52;8.63;;;;;;;;;;5104216;28;40832;-72
2023/07/13 07:50:04;;;;;;;22.85;9.48;;;;;;;;;;5108341;27;41380;-72
2023/07/13 07:52:32;;;;;;;19.10;9.75;;;;;;;;;;5106636;27;44435;-69
2023/07/13 07:55:00;;;;;;;18.38;9.73;;;;;;;;;;5109315;27;41659;-72
2023/07/13 07:57:32;;;;;;;19.40;8.35;;;;;;;;;;5101624;27;42154;-74
2023/07/13 08:00:21;;;;;;;17.48;9.15;;;;;;;;;;5100781;28;41464;-75
2023/07/13 08:02:52;;;;;;;22.52;10.57;;;;;;;;;;5100907;28;42881;-73
2023/07/13 08:05:23;;;;;;;21.15;9.85;;;;;;;;;;5104556;27;42105;-73
2023/07/13 08:08:03;;;;;;;23.60;9.98;;;;;;;;;;5104071;27;40555;-73
2023/07/13 08:10:31;;;;;;;18.50;9.65;;;;;;;;;;5095335;28;41679;-72
2023/07/13 08:13:02;;;;;;;19.08;9.35;;;;;;;;;;5101902;28;42111;-73
2023/07/13 08:15:33;;;;;;;23.30;10.48;;;;;;;;;;5107357;27;41181;-73
2023/07/13 08:18:02;;;;;;;21.92;10.73;;;;;;;;;;5101986;28;41899;-72
2023/07/13 08:20:30;;;;;;;18.10;9.07;;;;;;;;;;5100356;28;43945;-73
2023/07/13 08:22:58;;;;;;;18.33;8.85;;;;;;;;;;5098933;27;41896;-72
2023/07/13 08:25:26;;;;;;;17.25;8.52;;;;;;;;;;5103577;27;42644;-73
2023/07/13 08:27:54;;;;;;;20.10;9.02;;;;;;;;;;5103837;28;40889;-73
2023/07/13 08:30:25;;;;;;;19.58;8.98;;;;;;;;;;5100324;27;41291;-73
2023/07/13 08:32:54;;;;;;;19.00;9.18;;;;;;;;;;5105868;28;41742;-73
2023/07/13 08:35:22;;;;;;;23.92;9.68;;;;;;;;;;5104739;27;40399;-74
2023/07/13 08:37:50;;;;;;;18.83;9.30;;;;;;;;;;5096932;27;42215;-66
2023/07/13 08:40:18;;;;;;;22.65;9.90;;;;;;;;;;5093155;28;42255;-68
2023/07/13 08:42:51;;;;;;;18.00;9.48;;;;;;;;;;5087955;28;41445;-63
2023/07/13 08:45:20;;;;;;;21.15;8.93;;;;;;;;;;5095843;28;43030;-66
2023/07/13 08:47:52;;;;;;;18.02;9.65;;;;;;;;;;5099099;27;41529;-65
2023/07/13 08:50:21;;;;;;;22.80;10.55;;;;;;;;;;5099967;27;41489;-68
2023/07/13 08:52:49;;;;;;;22.92;10.27;;;;;;;;;;5104772;28;42411;-68
2023/07/13 08:55:18;;;;;;;20.83;10.25;;;;;;;;;;5101785;27;40276;-70
2023/07/13 08:57:47;;;;;;;23.63;10.38;;;;;;;;;;5086597;28;41759;-69
2023/07/13 09:00:16;;;;;;;20.00;9.13;;;;;;;;;;5097394;28;42239;-72
2023/07/13 09:02:46;;;;;;;16.38;8.82;;;;;;;;;;5106130;28;40502;-64
2023/07/13 09:05:17;;;;;;;18.55;9.93;;;;;;;;;;5095828;27;42326;-64
2023/07/13 09:07:50;;;;;;;18.20;10.00;;;;;;;;;;5085570;28;42071;-65
2023/07/13 09:10:20;;;;;;;18.55;8.85;;;;;;;;;;5082934;28;41632;-63
2023/07/13 09:12:52;;;;;;;13.77;7.88;;;;;;;;;;5102318;28;43198;-63
2023/07/13 09:15:25;;;;;;;15.93;8.07;;;;;;;;;;5104539;27;41979;-63
2023/07/13 09:17:55;;;;;;;22.58;7.97;;;;;;;;;;5104571;27;41449;-63
2023/07/13 09:20:26;;;;;;;17.92;8.48;;;;;;;;;;5104440;27;42715;-63
2023/07/13 09:22:54;;;;;;;15.82;7.57;;;;;;;;;;5105437;27;40657;-64
2023/07/13 09:25:24;;;;;;;13.68;6.93;;;;;;;;;;5106310;27;41314;-64
2023/07/13 09:27:54;;;;;;;15.68;7.43;;;;;;;;;;5106493;27;40192;-63
2023/07/13 09:30:25;;;;;;;17.15;6.68;;;;;;;;;;5105042;27;41290;-63
2023/07/13 09:32:53;;;;;;;18.77;7.38;;;;;;;;;;5106294;27;43311;-63
2023/07/13 09:35:22;;;;;;;11.95;6.45;;;;;;;;;;5105361;27;41501;-63
2023/07/13 09:37:52;;;;;;;12.80;6.70;;;;;;;;;;5104244;27;42169;-63
2023/07/13 09:40:22;;;;;;;16.30;6.53;;;;;;;;;;5104632;27;42969;-63
2023/07/13 09:42:50;;;;;;;13.80;6.40;;;;;;;;;;5106471;27;40572;-63
2023/07/13 09:45:18;;;;;;;16.13;6.95;;;;;;;;;;5104481;27;41786;-63
2023/07/13 09:47:48;;;;;;;9.77;6.53;;;;;;;;;;5106227;27;42145;-63
2023/07/13 09:50:16;;;;;;;10.00;6.05;;;;;;;;;;5106072;27;42544;-63
2023/07/13 09:52:45;;;;;;;13.55;6.97;;;;;;;;;;5105556;27;43190;-63
2023/07/13 09:55:25;;;;;;;14.68;6.53;;;;;;;;;;5106108;27;40090;-63
2023/07/13 09:57:53;;;;;;;12.48;6.43;;;;;;;;;;5106186;27;41809;-64
2023/07/13 10:00:22;;;;;;;11.50;7.00;;;;;;;;;;5104464;27;43172;-62
2023/07/13 10:02:58;;;;;;;17.65;6.97;;;;;;;;;;5105476;27;40830;-64
2023/07/13 10:05:26;;;;;;;13.93;7.10;;;;;;;;;;5104686;27;42591;-64
2023/07/13 10:07:54;;;;;;;19.77;7.68;;;;;;;;;;5106001;27;42277;-64
2023/07/13 10:10:23;;;;;;;14.70;6.88;;;;;;;;;;5105384;27;40882;-63
2023/07/13 10:12:53;;;;;;;10.82;6.30;;;;;;;;;;5093498;27;41812;-64
2023/07/13 10:15:21;;;;;;;14.35;8.35;;;;;;;;;;5094025;28;40677;-68
2023/07/13 10:17:52;;;;;;;16.77;6.80;;;;;;;;;;5092984;28;41838;-71
2023/07/13 10:20:20;;;;;;;13.75;6.55;;;;;;;;;;5096238;28;42162;-66
2023/07/13 10:22:51;;;;;;;10.80;4.55;;;;;;;;;;5099999;27;41676;-66
2023/07/13 10:25:20;;;;;;;5.80;4.13;;;;;;;;;;5101764;28;41478;-68
2023/07/13 10:27:48;;;;;;;11.02;4.90;;;;;;;;;;5105078;27;42042;-64
2023/07/13 10:30:20;;;;;;;15.48;3.88;;;;;;;;;;5093023;27;41951;-68
2023/07/13 10:32:48;;;;;;;7.65;3.97;;;;;;;;;;5100957;27;42761;-65
2023/07/13 10:35:18;;;;;;;8.57;4.20;;;;;;;;;;5095809;27;40832;-66
2023/07/13 10:37:49;;;;;;;6.38;3.80;;;;;;;;;;5104253;27;42601;-68
2023/07/13 10:40:19;;;;;;;10.68;3.90;;;;;;;;;;5091090;28;43755;-66
2023/07/13 10:42:47;;;;;;;5.30;3.75;;;;;;;;;;5109429;27;39948;-66
2023/07/13 10:45:16;;;;;;;6.50;3.38;;;;;;;;;;5108917;27;41339;-66
2023/07/13 10:47:45;;;;;;;8.88;3.70;;;;;;;;;;5109078;27;42795;-66
2023/07/13 10:50:16;;;;;;;7.47;3.70;;;;;;;;;;5109042;27;40694;-66
2023/07/13 10:52:46;;;;;;;5.72;3.45;;;;;;;;;;5108551;27;41704;-66
2023/07/13 10:55:36;;;;;;;7.30;3.90;;;;;;;;;;5108140;27;33079;-66
2023/07/13 10:58:14;;;;;;;7.60;4.10;;;;;;;;;;5109988;27;41754;-66
2023/07/13 11:00:53;;;;;;;7.82;3.97;;;;;;;;;;5108767;27;41568;-66
2023/07/13 11:03:22;;;;;;;8.27;4.00;;;;;;;;;;5107820;27;41326;-66
2023/07/13 11:05:52;;;;;;;7.97;3.90;;;;;;;;;;5108847;27;41794;-66
2023/07/13 11:08:22;;;;;;;11.32;4.53;;;;;;;;;;5100187;27;42314;-67
2023/07/13 11:10:51;;;;;;;9.27;4.25;;;;;;;;;;5088857;28;40920;-66
2023/07/13 11:13:53;;;;;;;10.95;4.82;;;;;;;;;;5087868;28;41560;-66
2023/07/13 11:16:37;;;;;;;13.38;5.03;;;;;;;;;;5034057;28;42880;-66
2023/07/13 11:19:25;;;;;;;10.73;4.28;;;;;;;;;;5037801;28;43255;-68
2023/07/13 11:22:04;;;;;;;15.38;4.65;;;;;;;;;;5063138;28;42052;-74
2023/07/13 11:24:48;;;;;;;16.33;4.20;;;;;;;;;;5097374;28;41463;-70
2023/07/13 11:27:22;;;;;;;10.43;4.40;;;;;;;;;;5109365;27;42271;-74
2023/07/13 11:29:50;;;;;;;11.40;5.00;;;;;;;;;;5108721;27;42857;-74
2023/07/13 11:32:26;;;;;;;13.80;4.13;;;;;;;;;;5108224;27;40142;-73
2023/07/13 11:34:54;;;;;;;10.80;4.13;;;;;;;;;;5109319;27;42658;-77
2023/07/13 11:37:24;;;;;;;12.93;4.07;;;;;;;;;;5107529;27;42203;-78
2023/07/13 11:39:52;;;;;;;12.90;5.93;;;;;;;;;;5105294;27;39908;-76
2023/07/13 11:42:21;;;;;;;10.38;5.35;;;;;;;;;;5092265;27;42795;-77
2023/07/13 11:44:49;;;;;;;11.20;4.80;;;;;;;;;;5107206;27;39918;-77
2023/07/13 11:47:36;;;;;;;12.40;4.63;;;;;;;;;;5107922;27;42119;-76
2023/07/13 11:50:06;;;;;;;7.82;4.13;;;;;;;;;;5102750;27;41834;-74
2023/07/13 11:52:36;;;;;;;12.38;4.25;;;;;;;;;;5096411;28;39997;-78
2023/07/13 11:55:05;;;;;;;12.05;3.80;;;;;;;;;;5099950;27;41393;-76
2023/07/13 11:57:35;;;;;;;6.93;3.63;;;;;;;;;;5096455;28;42287;-73
2023/07/13 12:00:05;;;;;;;11.95;4.20;;;;;;;;;;5097614;27;40057;-72
2023/07/13 12:02:34;;;;;;;8.10;3.47;;;;;;;;;;5088322;28;41698;-78
2023/07/13 12:05:03;;;;;;;8.55;4.13;;;;;;;;;;5088177;28;40116;-78
2023/07/13 12:07:32;;;;;;;8.30;4.00;;;;;;;;;;5094629;28;42233;-73
2023/07/13 12:10:01;;;;;;;11.75;4.20;;;;;;;;;;5108797;27;42775;-76
2023/07/13 12:12:30;;;;;;;8.43;3.95;;;;;;;;;;5106986;27;41310;-74
2023/07/13 12:14:58;;;;;;;6.78;4.43;;;;;;;;;;5108653;27;41870;-71
2023/07/13 12:17:26;;;;;;;7.78;4.25;;;;;;;;;;5108004;27;42114;-73
2023/07/13 12:19:54;;;;;;;12.40;4.45;;;;;;;;;;5107916;27;40479;-86
2023/07/13 12:22:23;;;;;;;8.50;4.05;;;;;;;;;;5108243;27;41807;-75
2023/07/13 12:24:51;;;;;;;6.95;3.88;;;;;;;;;;5109313;27;42655;-68
2023/07/13 12:27:22;;;;;;;6.47;3.47;;;;;;;;;;5107059;27;42697;-73
2023/07/13 12:29:51;;;;;;;4.68;3.25;;;;;;;;;;5108494;28;41806;-75
2023/07/13 12:32:19;;;;;;;8.07;3.50;;;;;;;;;;5107725;27;40347;-73
2023/07/13 12:34:54;;;;;;;7.63;2.78;;;;;;;;;;5106796;27;42460;-70
2023/07/13 12:37:22;;;;;;;8.40;3.65;;;;;;;;;;5108075;27;43342;-73
2023/07/13 12:39:50;;;;;;;6.38;3.30;;;;;;;;;;5107959;27;40751;-72
2023/07/13 12:42:23;;;;;;;11.98;3.85;;;;;;;;;;5107161;27;41191;-69
2023/07/13 12:44:51;;;;;;;9.10;3.22;;;;;;;;;;5108734;27;42118;-73
2023/07/13 12:47:20;;;;;;;11.75;3.97;;;;;;;;;;5106962;27;41359;-72
2023/07/13 12:49:49;;;;;;;10.88;3.38;;;;;;;;;;5107371;27;42946;-74
2023/07/13 12:52:21;;;;;;;11.90;3.58;;;;;;;;;;5106678;27;42872;-71
2023/07/13 12:54:57;;;;;;;6.63;3.50;;;;;;;;;;5106484;27;41681;-68
2023/07/13 12:57:39;;;;;;;5.93;3.35;;;;;;;;;;5105874;27;42207;-72
2023/07/13 13:00:15;;;;;;;7.82;3.05;;;;;;;;;;5106297;28;40018;-78
2023/07/13 13:02:43;;;;;;;8.25;3.38;;;;;;;;;;5106765;27;41532;-69
2023/07/13 13:05:14;;;;;;;7.07;3.20;;;;;;;;;;5107757;27;43094;-71
2023/07/13 13:07:42;;;;;;;5.45;2.83;;;;;;;;;;5107808;27;41583;-67
2023/07/13 13:10:12;;;;;;;4.88;2.95;;;;;;;;;;5106695;27;42751;-70
2023/07/13 13:12:42;;;;;;;5.57;2.97;;;;;;;;;;5107219;27;40458;-68
2023/07/13 13:15:11;;;;;;;5.40;2.63;;;;;;;;;;5106411;27;43069;-69
2023/07/13 13:17:39;;;;;;;4.82;2.90;;;;;;;;;;5106610;27;42383;-74
2023/07/13 13:20:13;;;;;;;5.03;2.78;;;;;;;;;;5107789;27;41361;-72
2023/07/13 13:22:42;;;;;;;6.80;2.60;;;;;;;;;;5086758;28;41917;-72
2023/07/13 13:25:10;;;;;;;5.03;2.75;;;;;;;;;;5087134;28;42109;-73
2023/07/13 13:27:39;;;;;;;5.57;3.05;;;;;;;;;;5086526;28;42413;-66
2023/07/13 13:30:13;;;;;;;7.30;3.10;;;;;;;;;;5086035;28;41756;-63
2023/07/13 13:32:41;;;;;;;10.98;3.22;;;;;;;;;;5088355;28;41382;-63
2023/07/13 13:35:13;;;;;;;5.07;2.92;;;;;;;;;;5107697;27;41662;-63
2023/07/13 13:37:41;;;;;;;10.43;2.60;;;;;;;;;;5106568;27;41720;-63
2023/07/13 13:40:14;;;;;;;4.75;2.50;;;;;;;;;;5107491;27;40044;-63
2023/07/13 13:42:43;;;;;;;4.95;2.63;;;;;;;;;;5107501;27;41272;-63
2023/07/13 13:45:13;;;;;;;6.18;2.90;;;;;;;;;;5106257;27;43163;-66
2023/07/13 13:47:41;;;;;;;4.85;2.42;;;;;;;;;;5106432;27;40910;-76
2023/07/13 13:50:13;;;;;;;7.75;2.80;;;;;;;;;;5105631;27;42233;-64
2023/07/13 13:52:41;;;;;;;5.80;2.30;;;;;;;;;;5106437;27;42099;-64
2023/07/13 13:55:12;;;;;;;7.82;2.60;;;;;;;;;;5107472;27;41749;-68
2023/07/13 13:57:41;;;;;;;6.25;2.42;;;;;;;;;;5105278;27;41733;-65
2023/07/13 14:00:11;;;;;;;9.43;2.53;;;;;;;;;;5106766;27;41487;-66
2023/07/13 14:02:41;;;;;;;4.35;2.30;;;;;;;;;;5105646;27;42327;-68
2023/07/13 14:05:10;;;;;;;13.90;2.60;;;;;;;;;;5093650;27;42337;-66
2023/07/13 14:07:38;;;;;;;5.90;2.25;;;;;;;;;;5087646;28;40425;-66
2023/07/13 14:10:10;;;;;;;4.97;2.40;;;;;;;;;;5102524;28;41317;-66
2023/07/13 14:12:38;;;;;;;7.93;2.90;;;;;;;;;;5104425;27;43696;-65
2023/07/13 14:15:07;;;;;;;7.07;2.75;;;;;;;;;;5108612;27;40098;-66
2023/07/13 14:17:35;;;;;;;4.90;2.35;;;;;;;;;;5108472;27;42369;-66
2023/07/13 14:20:12;;;;;;;5.35;2.78;;;;;;;;;;5109210;27;40390;-66
2023/07/13 14:22:40;;;;;;;4.63;2.67;;;;;;;;;;5108968;28;41131;-66
2023/07/13 14:25:09;;;;;;;7.78;2.72;;;;;;;;;;5108907;27;42312;-66
2023/07/13 14:27:37;;;;;;;6.38;2.58;;;;;;;;;;5107180;27;39913;-66
2023/07/13 14:30:08;;;;;;;6.25;2.85;;;;;;;;;;5107678;27;41959;-66
2023/07/13 14:32:36;;;;;;;5.28;2.80;;;;;;;;;;5106182;27;42935;-66
2023/07/13 14:35:05;;;;;;;5.05;3.08;;;;;;;;;;5107690;27;41179;-66
2023/07/13 14:37:34;;;;;;;5.22;2.58;;;;;;;;;;5108059;27;42178;-66
2023/07/13 14:40:03;;;;;;;4.25;2.70;;;;;;;;;;5108254;27;41005;-66
2023/07/13 14:42:31;;;;;;;4.20;2.72;;;;;;;;;;5108906;27;41931;-66
2023/07/13 14:44:59;;;;;;;5.50;3.20;;;;;;;;;;5109459;27;42315;-66
2023/07/13 14:47:27;;;;;;;6.32;2.47;;;;;;;;;;5108474;27;40320;-66
2023/07/13 14:49:55;;;;;;;5.50;2.90;;;;;;;;;;5110014;27;43126;-66
2023/07/13 14:52:24;;;;;;;7.72;3.20;;;;;;;;;;5108383;27;41814;-66